createdAt,value
2018-09-04T00:01:26.666Z,15.80
2018-09-04T00:03:55.990Z,15.60
2018-09-04T00:06:25.313Z,15.50
2018-09-04T00:08:54.880Z,15.50
2018-09-04T00:11:24.205Z,15.50
2018-09-04T00:13:53.522Z,15.40
2018-09-04T00:16:22.971Z,15.60
2018-09-04T00:18:52.303Z,15.60
2018-09-04T00:21:21.606Z,15.60
2018-09-04T00:23:50.924Z,15.60
2018-09-04T00:26:20.236Z,15.70
2018-09-04T00:28:49.540Z,15.80
2018-09-04T00:31:18.899Z,15.80
2018-09-04T00:33:48.175Z,15.70
2018-09-04T00:36:17.572Z,15.70
2018-09-04T00:38:46.849Z,15.60
2018-09-04T00:41:16.128Z,15.70
2018-09-04T00:43:45.410Z,15.80
2018-09-04T00:46:14.729Z,15.80
2018-09-04T00:48:44.054Z,15.80
2018-09-04T00:51:13.454Z,15.70
2018-09-04T00:53:42.776Z,15.70
2018-09-04T00:56:12.078Z,15.70
2018-09-04T00:58:41.384Z,15.70
2018-09-04T01:01:10.748Z,15.60
2018-09-04T01:03:40.096Z,15.60
2018-09-04T01:06:09.428Z,15.60
2018-09-04T01:08:38.826Z,15.40
2018-09-04T01:11:08.271Z,15.50
2018-09-04T01:13:46.839Z,15.50
2018-09-04T01:16:17.102Z,15.20
2018-09-04T01:18:46.405Z,15.00
2018-09-04T01:21:15.716Z,14.80
2018-09-04T01:23:45.035Z,14.80
2018-09-04T01:26:14.516Z,14.80
2018-09-04T01:28:43.882Z,14.80
2018-09-04T01:31:13.290Z,14.80
2018-09-04T01:33:42.596Z,14.70
2018-09-04T01:36:11.951Z,14.70
2018-09-04T01:38:41.259Z,14.70
2018-09-04T01:41:10.580Z,14.60
2018-09-04T01:43:39.962Z,14.60
2018-09-04T01:46:09.269Z,14.60
2018-09-04T01:48:38.680Z,14.60
2018-09-04T01:51:07.981Z,14.60
2018-09-04T01:53:37.500Z,14.50
2018-09-04T01:56:06.818Z,14.50
2018-09-04T01:58:36.161Z,14.50
2018-09-04T02:01:05.585Z,14.40
2018-09-04T02:03:35.709Z,14.30
2018-09-04T02:06:05.056Z,14.20
2018-09-04T02:08:34.389Z,14.20
2018-09-04T02:11:03.716Z,14.20
2018-09-04T02:13:33.119Z,14.20
2018-09-04T02:16:02.507Z,14.20
2018-09-04T02:18:31.932Z,14.20
2018-09-04T02:21:01.263Z,14.20
2018-09-04T02:23:30.571Z,14.20
2018-09-04T02:25:59.902Z,14.30
2018-09-04T02:28:29.355Z,14.30
2018-09-04T02:30:58.673Z,14.40
2018-09-04T02:33:27.986Z,14.40
2018-09-04T02:35:57.348Z,14.40
2018-09-04T02:38:26.727Z,14.50
2018-09-04T02:40:56.061Z,14.60
2018-09-04T02:43:25.362Z,14.60
2018-09-04T02:45:54.680Z,14.70
2018-09-04T02:48:24.019Z,14.70
2018-09-04T02:50:53.384Z,14.70
2018-09-04T02:53:22.802Z,14.70
2018-09-04T02:55:52.128Z,14.70
2018-09-04T02:58:21.514Z,14.90
2018-09-04T03:00:50.792Z,15.10
2018-09-04T03:03:20.109Z,15.40
2018-09-04T03:05:49.437Z,15.40
2018-09-04T03:08:18.777Z,15.40
2018-09-04T03:10:48.088Z,15.30
2018-09-04T03:13:17.537Z,15.40
2018-09-04T03:15:46.842Z,15.40
2018-09-04T03:18:16.168Z,15.40
2018-09-04T03:20:45.580Z,15.50
2018-09-04T03:23:14.911Z,15.40
2018-09-04T03:25:44.296Z,15.30
2018-09-04T03:28:13.694Z,15.20
2018-09-04T03:30:43.182Z,15.20
2018-09-04T03:33:12.611Z,15.20
2018-09-04T03:35:41.930Z,15.20
2018-09-04T03:38:11.296Z,15.40
2018-09-04T03:40:40.690Z,15.40
2018-09-04T03:43:10.018Z,15.50
2018-09-04T03:45:39.455Z,15.50
2018-09-04T03:48:09.376Z,15.60
2018-09-04T03:50:39.704Z,15.50
2018-09-04T03:53:09.049Z,15.60
2018-09-04T03:55:38.468Z,15.60
2018-09-04T03:58:07.779Z,15.60
2018-09-04T04:00:37.151Z,15.60
2018-09-04T04:03:06.571Z,15.60
2018-09-04T04:05:36.161Z,15.60
2018-09-04T04:08:05.684Z,15.60
2018-09-04T04:10:35.081Z,15.70
2018-09-04T04:13:04.763Z,15.60
2018-09-04T04:15:34.552Z,15.70
2018-09-04T04:18:04.022Z,15.50
2018-09-04T04:20:33.380Z,15.40
2018-09-04T04:23:03.073Z,15.30
2018-09-04T04:25:32.572Z,15.30
2018-09-04T04:28:01.833Z,15.30
2018-09-04T04:30:31.153Z,15.40
2018-09-04T04:33:00.597Z,15.20
2018-09-04T04:35:29.922Z,15.20
2018-09-04T04:37:59.281Z,15.20
2018-09-04T04:40:28.797Z,15.20
2018-09-04T04:42:58.105Z,15.30
2018-09-04T04:45:27.545Z,15.30
2018-09-04T04:47:56.883Z,15.30
2018-09-04T04:50:26.093Z,15.40
2018-09-04T04:52:55.381Z,15.40
2018-09-04T04:55:24.654Z,15.50
2018-09-04T04:57:53.938Z,15.60
2018-09-04T05:00:23.319Z,15.50
2018-09-04T05:02:52.735Z,15.50
2018-09-04T05:05:22.093Z,15.50
2018-09-04T05:07:51.490Z,15.40
2018-09-04T05:10:20.832Z,15.50
2018-09-04T05:12:50.224Z,15.60
2018-09-04T05:15:19.634Z,15.60
2018-09-04T05:17:48.942Z,15.60
2018-09-04T05:20:23.967Z,15.60
2018-09-04T05:22:53.500Z,15.60
2018-09-04T05:25:22.886Z,15.50
2018-09-04T05:27:52.474Z,15.50
2018-09-04T05:30:21.911Z,15.40
2018-09-04T05:32:56.476Z,15.40
2018-09-04T05:35:29.586Z,15.30
2018-09-04T05:37:59.118Z,15.10
2018-09-04T05:40:28.472Z,15.10
2018-09-04T05:43:00.832Z,15.20
2018-09-04T05:45:31.795Z,15.30
2018-09-04T05:48:03.841Z,15.20
2018-09-04T05:50:34.015Z,15.40
2018-09-04T05:53:03.337Z,15.60
2018-09-04T05:55:33.363Z,15.40
2018-09-04T05:58:03.027Z,15.30
2018-09-04T06:00:34.658Z,15.30
2018-09-04T06:03:04.216Z,15.40
2018-09-04T06:05:33.637Z,15.10
2018-09-04T06:08:02.955Z,15.00
2018-09-04T06:10:32.278Z,15.00
2018-09-04T06:13:01.708Z,15.10
2018-09-04T06:15:31.093Z,15.00
2018-09-04T06:18:00.548Z,15.00
2018-09-04T06:20:29.923Z,14.90
2018-09-04T06:22:59.319Z,15.10
2018-09-04T06:25:28.733Z,15.00
2018-09-04T06:27:58.073Z,14.90
2018-09-04T06:30:27.428Z,15.10
2018-09-04T06:32:56.751Z,15.00
2018-09-04T06:35:26.324Z,15.00
2018-09-04T06:37:55.841Z,14.90
2018-09-04T06:40:28.108Z,14.90
2018-09-04T06:42:57.626Z,15.00
2018-09-04T06:45:27.073Z,14.90
2018-09-04T06:47:56.479Z,15.00
2018-09-04T06:50:25.851Z,14.90
2018-09-04T06:52:55.347Z,14.90
2018-09-04T06:55:24.794Z,15.00
2018-09-04T06:57:54.887Z,15.00
2018-09-04T07:00:33.423Z,15.10
2018-09-04T07:03:05.599Z,15.10
2018-09-04T07:05:41.056Z,15.30
2018-09-04T07:08:17.664Z,15.50
2018-09-04T07:10:47.762Z,15.60
2018-09-04T07:13:22.450Z,15.30
2018-09-04T07:15:56.505Z,15.40
2018-09-04T07:18:27.604Z,15.40
2018-09-04T07:20:57.208Z,15.40
2018-09-04T07:23:36.662Z,15.30
2018-09-04T07:26:06.217Z,15.30
2018-09-04T07:28:35.920Z,15.40
2018-09-04T07:31:06.300Z,15.40
2018-09-04T07:33:35.689Z,15.50
2018-09-04T07:36:05.228Z,15.50
2018-09-04T07:38:34.718Z,15.60
2018-09-04T07:41:04.362Z,15.90
2018-09-04T07:43:33.919Z,15.90
2018-09-04T07:46:03.495Z,16.10
2018-09-04T07:48:32.925Z,16.00
2018-09-04T07:51:02.391Z,16.10
2018-09-04T07:53:31.854Z,16.10
2018-09-04T07:56:01.216Z,16.30
2018-09-04T07:58:30.846Z,16.30
2018-09-04T08:01:00.280Z,16.20
2018-09-04T08:03:29.569Z,16.30
2018-09-04T08:05:58.916Z,16.40
2018-09-04T08:08:28.335Z,16.80
2018-09-04T08:10:57.919Z,17.40
2018-09-04T08:13:27.274Z,17.70
2018-09-04T08:15:56.652Z,18.40
2018-09-04T08:18:26.044Z,18.60
2018-09-04T08:20:55.779Z,19.10
2018-09-04T08:23:24.950Z,19.30
2018-09-04T08:25:54.373Z,20.00
2018-09-04T08:28:23.782Z,20.00
2018-09-04T08:30:54.104Z,19.90
2018-09-04T08:33:23.714Z,20.10
2018-09-04T08:35:53.112Z,19.20
2018-09-04T08:38:22.162Z,19.90
2018-09-04T08:40:51.232Z,20.40
2018-09-04T08:43:20.309Z,20.60
2018-09-04T08:45:49.367Z,20.80
2018-09-04T08:48:19.748Z,20.90
2018-09-04T08:50:48.890Z,20.60
2018-09-04T08:53:18.339Z,20.90
2018-09-04T08:55:47.495Z,20.40
2018-09-04T08:58:16.562Z,20.30
2018-09-04T09:00:46.021Z,20.10
2018-09-04T09:03:15.510Z,20.00
2018-09-04T09:05:44.825Z,20.60
2018-09-04T09:08:14.175Z,21.00
2018-09-04T09:10:43.490Z,21.30
2018-09-04T09:13:12.855Z,21.10
2018-09-04T09:15:42.393Z,21.20
2018-09-04T09:18:14.348Z,22.00
2018-09-04T09:20:43.399Z,21.50
2018-09-04T09:23:12.692Z,22.10
2018-09-04T09:25:41.744Z,22.10
2018-09-04T09:28:10.800Z,22.40
2018-09-04T09:30:39.926Z,22.50
2018-09-04T09:33:08.967Z,23.40
2018-09-04T09:35:38.018Z,22.20
2018-09-04T09:38:07.042Z,22.10
2018-09-04T09:40:36.936Z,22.80
2018-09-04T09:43:06.349Z,22.50
2018-09-04T09:45:35.524Z,23.00
2018-09-04T09:48:04.892Z,23.00
2018-09-04T09:50:33.975Z,23.50
2018-09-04T09:53:03.192Z,23.30
2018-09-04T09:55:36.752Z,23.10
2018-09-04T09:58:10.151Z,23.60
2018-09-04T10:00:52.685Z,24.30
2018-09-04T10:03:27.045Z,25.20
2018-09-04T10:05:56.079Z,24.60
2018-09-04T10:08:25.388Z,25.30
2018-09-04T10:10:54.420Z,25.70
2018-09-04T10:13:23.646Z,25.70
2018-09-04T10:15:52.756Z,26.30
2018-09-04T10:18:21.827Z,26.10
2018-09-04T10:20:50.862Z,25.80
2018-09-04T10:23:20.243Z,26.30
2018-09-04T10:25:49.353Z,26.40
2018-09-04T10:28:18.689Z,26.70
2018-09-04T10:30:48.137Z,26.60
2018-09-04T10:33:17.515Z,26.20
2018-09-04T10:35:46.864Z,25.70
2018-09-04T10:38:17.054Z,26.00
2018-09-04T10:40:47.420Z,26.60
2018-09-04T10:43:17.101Z,26.20
2018-09-04T10:45:51.793Z,25.50
2018-09-04T10:48:26.547Z,25.60
2018-09-04T10:50:55.960Z,25.60
2018-09-04T10:53:25.416Z,25.60
2018-09-04T10:55:55.168Z,25.70
2018-09-04T10:58:24.507Z,26.10
2018-09-04T11:00:53.888Z,26.90
2018-09-04T11:03:23.464Z,26.60
2018-09-04T11:05:53.152Z,26.90
2018-09-04T11:08:22.540Z,27.10
2018-09-04T11:10:52.084Z,27.50
2018-09-04T11:13:21.477Z,27.10
2018-09-04T11:15:50.905Z,27.30
2018-09-04T11:18:20.244Z,27.40
2018-09-04T11:20:49.899Z,27.70
2018-09-04T11:23:19.388Z,26.60
2018-09-04T11:25:48.852Z,26.70
2018-09-04T11:28:20.126Z,26.50
2018-09-04T11:30:49.721Z,27.10
2018-09-04T11:33:19.249Z,27.90
2018-09-04T11:35:50.724Z,27.10
2018-09-04T11:38:21.272Z,27.10
2018-09-04T11:40:50.771Z,27.20
2018-09-04T11:43:20.203Z,27.50
2018-09-04T11:45:49.715Z,27.10
2018-09-04T11:48:19.614Z,27.30
2018-09-04T11:50:49.079Z,27.60
2018-09-04T11:53:18.501Z,27.20
2018-09-04T11:55:48.604Z,26.70
2018-09-04T11:58:17.926Z,27.10
2018-09-04T12:00:48.524Z,28.20
2018-09-04T12:03:17.969Z,28.20
2018-09-04T12:05:47.386Z,28.80
2018-09-04T12:08:16.759Z,27.90
2018-09-04T12:10:46.125Z,27.90
2018-09-04T12:13:21.202Z,27.80
2018-09-04T12:15:50.663Z,27.70
2018-09-04T12:18:20.270Z,28.00
2018-09-04T12:20:51.575Z,28.30
2018-09-04T12:23:21.169Z,28.30
2018-09-04T12:25:52.150Z,27.00
2018-09-04T12:28:21.640Z,28.40
2018-09-04T12:30:51.014Z,29.30
2018-09-04T12:33:21.031Z,28.80
2018-09-04T12:35:50.414Z,28.90
2018-09-04T12:38:23.096Z,29.00
2018-09-04T12:40:52.517Z,28.80
2018-09-04T12:43:22.674Z,29.10
2018-09-04T12:45:55.332Z,29.50
2018-09-04T12:48:28.159Z,28.90
2018-09-04T12:50:59.347Z,29.50
2018-09-04T12:53:30.349Z,29.70
2018-09-04T12:55:59.900Z,29.60
2018-09-04T12:58:30.265Z,29.60
2018-09-04T13:00:59.905Z,29.50
2018-09-04T13:03:29.841Z,29.90
2018-09-04T13:05:59.232Z,29.80
2018-09-04T13:08:33.985Z,29.40
2018-09-04T13:11:03.308Z,28.70
2018-09-04T13:13:32.812Z,29.30
2018-09-04T13:16:02.409Z,29.50
2018-09-04T13:18:31.819Z,29.20
2018-09-04T13:21:02.903Z,29.50
2018-09-04T13:23:33.786Z,28.80
2018-09-04T13:26:03.785Z,28.50
2018-09-04T13:28:35.041Z,28.60
2018-09-04T13:31:05.104Z,30.20
2018-09-04T13:33:35.994Z,30.60
2018-09-04T13:36:05.366Z,30.20
2018-09-04T13:38:34.882Z,29.60
2018-09-04T13:41:07.848Z,29.50
2018-09-04T13:43:38.655Z,29.60
2018-09-04T13:46:08.152Z,29.40
2018-09-04T13:48:37.529Z,29.20
2018-09-04T13:51:07.029Z,28.90
2018-09-04T13:53:36.448Z,29.20
2018-09-04T13:56:05.920Z,29.50
2018-09-04T13:58:40.908Z,29.10
2018-09-04T14:01:13.966Z,28.60
2018-09-04T14:03:44.511Z,29.30
2018-09-04T14:06:14.337Z,29.20
2018-09-04T14:08:44.097Z,29.10
2018-09-04T14:11:14.407Z,29.00
2018-09-04T14:13:43.794Z,28.00
2018-09-04T14:16:15.337Z,27.90
2018-09-04T14:18:45.288Z,27.60
2018-09-04T14:21:14.708Z,27.40
2018-09-04T14:23:44.058Z,27.40
2018-09-04T14:26:13.410Z,27.30
2018-09-04T14:28:42.722Z,27.50
2018-09-04T14:31:12.105Z,27.40
2018-09-04T14:33:41.473Z,27.50
2018-09-04T14:36:10.970Z,27.60
2018-09-04T14:38:40.655Z,27.40
2018-09-04T14:41:10.371Z,27.30
2018-09-04T14:43:39.729Z,27.50
2018-09-04T14:46:09.342Z,27.80
2018-09-04T14:48:38.916Z,27.80
2018-09-04T14:51:08.288Z,27.40
2018-09-04T14:54:07.966Z,27.40
2018-09-04T14:56:37.998Z,27.60
2018-09-04T14:59:08.568Z,27.20
2018-09-04T15:01:38.344Z,27.30
2018-09-04T15:04:07.761Z,27.20
2018-09-04T15:06:38.131Z,27.00
2018-09-04T15:09:07.735Z,27.10
2018-09-04T15:11:37.173Z,27.00
2018-09-04T15:14:06.643Z,27.40
2018-09-04T15:16:35.975Z,27.40
2018-09-04T15:19:05.421Z,27.50
2018-09-04T15:21:34.764Z,27.00
2018-09-04T15:24:04.477Z,26.50
2018-09-04T15:26:33.879Z,25.80
2018-09-04T15:29:03.577Z,25.60
2018-09-04T15:31:32.948Z,25.40
2018-09-04T15:34:02.241Z,24.90
2018-09-04T15:36:31.633Z,24.80
2018-09-04T15:39:01.374Z,24.90
2018-09-04T15:41:30.728Z,25.20
2018-09-04T15:44:00.040Z,25.00
2018-09-04T15:46:31.663Z,24.90
2018-09-04T15:49:06.404Z,25.00
2018-09-04T15:51:35.796Z,23.80
2018-09-04T15:54:05.113Z,23.50
2018-09-04T15:56:34.631Z,24.00
2018-09-04T15:59:05.033Z,24.40
2018-09-04T16:01:34.376Z,24.50
2018-09-04T16:04:03.824Z,24.50
2018-09-04T16:06:34.137Z,24.10
2018-09-04T16:09:05.177Z,23.90
2018-09-04T16:11:34.652Z,24.00
2018-09-04T16:14:04.103Z,23.70
2018-09-04T16:16:33.415Z,23.40
2018-09-04T16:19:02.770Z,23.40
2018-09-04T16:21:32.096Z,23.60
2018-09-04T16:24:01.434Z,23.70
2018-09-04T16:26:31.061Z,23.40
2018-09-04T16:29:00.711Z,23.60
2018-09-04T16:31:30.145Z,23.90
2018-09-04T16:33:59.648Z,23.80
2018-09-04T16:36:28.934Z,23.90
2018-09-04T16:38:58.258Z,23.70
2018-09-04T16:41:27.641Z,23.40
2018-09-04T16:43:56.938Z,23.10
2018-09-04T16:46:26.322Z,22.40
2018-09-04T16:48:55.764Z,22.10
2018-09-04T16:51:26.172Z,22.30
2018-09-04T16:53:55.790Z,22.40
2018-09-04T16:56:25.285Z,22.50
2018-09-04T16:58:54.737Z,22.70
2018-09-04T17:01:25.058Z,22.80
2018-09-04T17:03:54.516Z,22.80
2018-09-04T17:06:24.984Z,23.00
2018-09-04T17:08:54.449Z,22.60
2018-09-04T17:11:23.748Z,22.60
2018-09-04T17:13:53.162Z,22.40
2018-09-04T17:16:23.361Z,22.20
2018-09-04T17:18:53.310Z,22.40
2018-09-04T17:21:22.643Z,22.60
2018-09-04T17:23:52.120Z,22.90
2018-09-04T17:26:21.702Z,22.80
2018-09-04T17:28:51.018Z,22.80
2018-09-04T17:31:20.408Z,22.80
2018-09-04T17:33:50.019Z,22.80
2018-09-04T17:36:19.495Z,22.90
2018-09-04T17:38:48.997Z,22.90
2018-09-04T17:41:18.344Z,22.80
2018-09-04T17:43:47.678Z,22.70
2018-09-04T17:46:17.644Z,22.60
2018-09-04T17:48:47.059Z,22.50
2018-09-04T17:51:16.542Z,22.50
2018-09-04T17:53:45.817Z,22.40
2018-09-04T17:56:15.232Z,22.20
2018-09-04T17:58:44.676Z,22.10
2018-09-04T18:01:14.089Z,22.10
2018-09-04T18:03:43.785Z,22.00
2018-09-04T18:06:13.116Z,22.00
2018-09-04T18:08:42.531Z,21.90
2018-09-04T18:11:11.955Z,21.90
2018-09-04T18:13:41.300Z,22.00
2018-09-04T18:16:10.801Z,21.90
2018-09-04T18:18:40.143Z,21.90
2018-09-04T18:21:10.388Z,21.90
2018-09-04T18:23:39.967Z,21.90
2018-09-04T18:26:09.296Z,21.80
2018-09-04T18:28:38.830Z,21.80
2018-09-04T18:31:08.236Z,21.80
2018-09-04T18:33:37.647Z,21.80
2018-09-04T18:36:07.179Z,21.80
2018-09-04T18:38:36.744Z,21.50
2018-09-04T18:41:06.564Z,21.40
2018-09-04T18:43:35.956Z,21.40
2018-09-04T18:46:05.337Z,21.20
2018-09-04T18:48:34.934Z,21.10
2018-09-04T18:51:04.267Z,21.00
2018-09-04T18:53:33.618Z,20.80
2018-09-04T18:56:02.941Z,20.70
2018-09-04T18:58:32.281Z,20.70
2018-09-04T19:01:01.705Z,20.60
2018-09-04T19:03:31.035Z,20.60
2018-09-04T19:06:00.583Z,20.60
2018-09-04T19:08:29.903Z,20.80
2018-09-04T19:10:59.335Z,20.80
2018-09-04T19:13:28.854Z,20.60
2018-09-04T19:15:58.201Z,20.60
2018-09-04T19:18:27.600Z,20.50
2018-09-04T19:20:57.007Z,20.50
2018-09-04T19:23:26.410Z,20.40
2018-09-04T19:25:55.837Z,20.30
2018-09-04T19:28:25.172Z,20.20
2018-09-04T19:30:54.621Z,20.10
2018-09-04T19:33:23.996Z,20.10
2018-09-04T19:35:53.284Z,20.00
2018-09-04T19:38:22.589Z,19.90
2018-09-04T19:40:52.031Z,19.90
2018-09-04T19:43:21.369Z,19.90
2018-09-04T19:45:50.685Z,19.80
2018-09-04T19:48:19.996Z,19.80
2018-09-04T19:50:49.400Z,19.70
2018-09-04T19:53:18.886Z,19.80
2018-09-04T19:55:48.332Z,19.70
2018-09-04T19:58:17.646Z,19.80
2018-09-04T20:00:47.026Z,19.70
2018-09-04T20:03:16.350Z,19.80
2018-09-04T20:05:45.692Z,19.70
2018-09-04T20:08:15.060Z,19.70
2018-09-04T20:10:44.472Z,19.60
2018-09-04T20:13:13.977Z,19.60
2018-09-04T20:15:43.334Z,19.30
2018-09-04T20:18:12.666Z,19.10
2018-09-04T20:20:42.331Z,19.10
2018-09-04T20:23:11.677Z,19.10
2018-09-04T20:25:41.017Z,19.00
2018-09-04T20:28:10.848Z,19.00
2018-09-04T20:30:40.222Z,19.00
2018-09-04T20:33:09.525Z,19.10
2018-09-04T20:35:38.899Z,19.00
2018-09-04T20:38:08.427Z,19.00
2018-09-04T20:40:37.752Z,18.90
2018-09-04T20:43:07.168Z,18.70
2018-09-04T20:45:36.593Z,18.70
2018-09-04T20:48:06.112Z,18.50
2018-09-04T20:50:35.399Z,18.50
2018-09-04T20:53:05.302Z,18.40
2018-09-04T20:55:34.702Z,18.40
2018-09-04T20:58:15.459Z,18.30
2018-09-04T21:00:55.860Z,18.20
2018-09-04T21:03:36.731Z,18.00
2018-09-04T21:06:17.205Z,18.10
2018-09-04T21:08:56.310Z,18.20
2018-09-04T21:11:25.751Z,18.20
2018-09-04T21:13:55.304Z,18.20
2018-09-04T21:16:24.976Z,18.20
2018-09-04T21:18:54.471Z,18.30
2018-09-04T21:21:23.959Z,18.40
2018-09-04T21:23:53.255Z,18.40
2018-09-04T21:26:22.561Z,18.40
2018-09-04T21:28:52.075Z,18.40
2018-09-04T21:31:21.685Z,18.50
2018-09-04T21:33:50.975Z,18.70
2018-09-04T21:36:20.309Z,18.60
2018-09-04T21:38:49.673Z,18.60
2018-09-04T21:41:19.044Z,18.70
2018-09-04T21:43:48.408Z,18.80
2018-09-04T21:46:17.729Z,18.80
2018-09-04T21:48:47.076Z,18.90
2018-09-04T21:51:16.405Z,18.90
2018-09-04T21:53:46.112Z,19.00
2018-09-04T21:56:15.427Z,18.90
2018-09-04T21:58:45.544Z,18.90
2018-09-04T22:01:14.992Z,18.80
2018-09-04T22:03:44.293Z,18.80
2018-09-04T22:06:13.618Z,18.70
2018-09-04T22:08:44.174Z,18.60
2018-09-04T22:11:13.525Z,18.60
2018-09-04T22:13:43.239Z,18.60
2018-09-04T22:16:12.591Z,18.60
2018-09-04T22:18:41.977Z,18.60
2018-09-04T22:21:11.300Z,18.50
2018-09-04T22:23:40.732Z,18.50
2018-09-04T22:26:10.171Z,18.60
2018-09-04T22:28:39.504Z,18.50
2018-09-04T22:31:08.820Z,18.50
2018-09-04T22:33:38.144Z,18.40
2018-09-04T22:36:08.163Z,18.30
2018-09-04T22:38:37.487Z,18.30
2018-09-04T22:41:06.828Z,18.30
2018-09-04T22:43:36.296Z,18.30
2018-09-04T22:46:05.796Z,18.30
2018-09-04T22:48:35.123Z,18.30
2018-09-04T22:51:09.604Z,18.20
2018-09-04T22:53:39.335Z,18.30
2018-09-04T22:56:08.671Z,18.20
2018-09-04T22:58:38.113Z,18.20
2018-09-04T23:01:07.446Z,18.20
2018-09-04T23:03:36.843Z,18.10
2018-09-04T23:06:06.386Z,18.10
2018-09-04T23:08:35.691Z,18.00
2018-09-04T23:11:05.083Z,18.00
2018-09-04T23:13:34.413Z,18.00
2018-09-04T23:16:03.736Z,18.00
2018-09-04T23:18:33.059Z,17.90
2018-09-04T23:21:02.391Z,17.90
2018-09-04T23:23:31.756Z,17.80
2018-09-04T23:26:01.272Z,17.80
2018-09-04T23:28:30.859Z,17.70
2018-09-04T23:31:01.321Z,17.70
2018-09-04T23:33:32.138Z,17.60
2018-09-04T23:36:01.539Z,17.60
2018-09-04T23:38:30.883Z,17.50
2018-09-04T23:41:00.255Z,17.60
2018-09-04T23:43:29.573Z,17.60
2018-09-04T23:45:58.933Z,17.50
2018-09-04T23:48:28.318Z,17.50
2018-09-04T23:50:58.712Z,17.50
2018-09-04T23:53:28.278Z,17.40
2018-09-04T23:55:57.610Z,17.30
2018-09-04T23:58:26.996Z,17.40
